Terminal Aerodrome Forecast
Issued by NWS Wilmington, OH

Current Version | Previous Version | Text Only | Print | Product List | Glossary Off
Versions: 1 2 3 4 5 6 7 8 9 10 11 12 13 14 15 16 17 18 19

351
FTUS41 KILN 202347
TAFILN
TAF
KILN 202347Z 2100/2124 19012KT P6SM VCTS BKN035CB OVC060
      TEMPO 2100/2104 2SM TSRA OVC015CB
     FM210500 22010KT P6SM BKN035
     FM211000 26008KT P6SM BKN025
     FM211400 28011KT P6SM BKN035
     FM212300 31005KT P6SM SCT250=

USA.gov is the U.S. government's official web portal to all federal, state and local government web resources and services.